Latimer, Mississippi
Current Conditions -  °F | °C
As of 4:58 PM on Wednesday 26 Nov 2014 (Local Time) from KBIX Reporting Station
Clear Clear  
Wind Chill: 55°   Ceiling: Unl
Heat Index: 55°   Visibility: 10mi
Dew Point: 44°   Wind: 10mph
Humidity: 68%   Direction: 220°SW
Pressure: 30.18"   Gusts: NA
Location:  30.418°N, 88.7558°W
Report Text: KBIX 262258Z AUTO 22009KT 10SM CLR 13/07 A3018 RMK AO2 SLP223 T01260068
Loading
Personal Weather Stations






























Interactive Weather Map New forecast layout! Learn more

10-Day Weather Forecast

Advertisements
Track Severe Weather on mobile